Shibin el-Kom, Egypt
Current Conditions -  °F | °C
As of 8:30 AM on Wednesday 28 Jan 2015 (Local Time) from HECA Reporting Station
Clear Clear  
Wind Chill: 57°   Ceiling: Unl
Heat Index: 57°   Visibility: 4mi
Dew Point: 46°   Wind: 6mph
Humidity: 67%   Direction: 260°W
Pressure: 30"   Gusts: NA
Location:  30.59°N, 30.9°E
Report Text: HECA 280630Z 26005KT 6000 NSC 14/08 Q1016 NOSIG
Loading
Personal Weather Stations






























Interactive Weather Map New forecast layout! Learn more

10-Day Weather Forecast

Advertisements
Track Severe Weather on mobile